Time;durP1;ratioP1;P1;durP2;ratioP2;P2;SDS_P1;SDS_P2;PMS_P1;PMS_P2;Temp;Humidity;BMP_temperature;BMP_pressure;BME280_temperature;BME280_humidity;BME280_pressure;Samples;Min_cycle;Max_cycle;Signal;HPM_P1;HPM_P2
2022/01/24 00:00:11;;;;;;;0.70;0.70;;;;;;;7.30;74.01;102954.56;686963;28;46351;-67
2022/01/24 00:00:32;;;;;;;0.90;0.90;;;;;;;7.31;73.92;102958.13;687654;28;47417;-67
2022/01/24 00:00:53;;;;;;;0.90;0.90;;;;;;;7.32;74.04;102959.84;688403;28;22380;-67
2022/01/24 00:01:16;;;;;;;0.90;0.90;;;;;;;7.32;74.01;102962.53;687458;28;23474;-67
2022/01/24 00:01:38;;;;;;;0.90;0.90;;;;;;;7.31;73.89;102953.59;687175;28;69455;-67
2022/01/24 00:01:59;;;;;;;0.85;0.85;;;;;;;7.32;73.72;102955.34;686537;28;66171;-67
2022/01/24 00:02:20;;;;;;;0.80;0.80;;;;;;;7.33;73.87;102959.72;688028;28;21489;-67
2022/01/24 00:02:43;;;;;;;1.00;1.00;;;;;;;7.33;73.63;102957.03;688822;28;21534;-68
2022/01/24 00:03:04;;;;;;;1.10;1.10;;;;;;;7.34;73.67;102947.19;686615;28;69190;-67
2022/01/24 00:03:25;;;;;;;0.90;0.90;;;;;;;7.35;73.70;102948.88;688647;28;21150;-67
2022/01/24 00:03:47;;;;;;;0.70;0.70;;;;;;;7.34;73.81;102950.72;687132;28;47447;-67
2022/01/24 00:04:09;;;;;;;0.65;0.65;;;;;;;7.37;73.86;102952.34;687857;28;48139;-67
2022/01/24 00:04:30;;;;;;;0.82;0.82;;;;;;;7.37;73.50;102944.28;688777;28;22371;-67
2022/01/24 00:04:51;;;;;;;0.98;0.98;;;;;;;7.37;73.81;102946.97;688143;28;22411;-67
2022/01/24 00:05:13;;;;;;;0.98;0.98;;;;;;;7.37;73.64;102946.97;688393;28;22391;-67
2022/01/24 00:05:35;;;;;;;0.90;0.90;;;;;;;7.38;73.68;102948.69;687838;28;44542;-67
2022/01/24 00:05:56;;;;;;;0.90;0.90;;;;;;;7.37;73.77;102958.56;687679;28;46457;-67
2022/01/24 00:06:17;;;;;;;0.70;0.70;;;;;;;7.38;73.86;102954.94;690247;28;23155;-67
2022/01/24 00:06:39;;;;;;;0.85;0.85;;;;;;;7.37;73.62;102942.44;691210;28;22293;-67
2022/01/24 00:07:01;;;;;;;1.00;1.00;;;;;;;7.38;73.76;102954.06;688597;28;67443;-67
2022/01/24 00:07:24;;;;;;;0.90;0.90;;;;;;;7.37;73.83;102944.28;689737;28;47561;-67
2022/01/24 00:07:45;;;;;;;0.95;0.95;;;;;;;7.37;73.94;102955.03;688805;28;67551;-67
2022/01/24 00:08:06;;;;;;;0.85;0.85;;;;;;;7.33;73.59;102938.22;689878;28;21312;-67
2022/01/24 00:08:30;;;;;;;0.90;0.90;;;;;;;7.36;73.54;102950.63;688539;28;22409;-67
2022/01/24 00:08:51;;;;;;;1.02;1.02;;;;;;;7.33;73.74;102945.44;686138;28;93257;-67
2022/01/24 00:09:14;;;;;;;1.10;1.10;;;;;;;7.34;73.66;102950.72;687814;28;21560;-67
2022/01/24 00:09:36;;;;;;;1.10;1.10;;;;;;;7.34;73.63;102949.88;689422;28;69336;-67
2022/01/24 00:10:02;;;;;;;0.90;0.90;;;;;;;7.34;73.88;102955.25;690266;28;46355;-67
2022/01/24 00:10:26;;;;;;;0.80;0.80;;;;;;;7.33;73.62;102946.28;687673;28;122998;-67
2022/01/24 00:10:49;;;;;;;1.00;1.00;;;;;;;7.29;73.82;102946.59;688380;28;90889;-67
2022/01/24 00:11:15;;;;;;;0.90;0.90;;;;;;;7.33;73.75;102950.81;688862;28;68667;-67
2022/01/24 00:11:43;;;;;;;0.80;0.80;;;;;;;7.31;73.67;102947.38;684893;28;138000;-67
2022/01/24 00:12:15;;;;;;;0.90;0.90;;;;;;;7.32;73.87;102946.38;683612;28;157496;-67
2022/01/24 00:12:46;;;;;;;0.98;0.98;;;;;;;7.32;74.08;102949.97;684714;28;136010;-67
2022/01/24 00:13:42;;;;;;;0.98;0.98;;;;;;;7.32;74.04;102949.97;684141;28;138089;-67
2022/01/24 00:14:56;;;;;;;0.80;0.80;;;;;;;7.31;73.77;102945.53;672572;29;160467;-67
2022/01/24 00:15:24;;;;;;;0.95;0.95;;;;;;;7.30;74.06;102951.00;673390;29;136027;-67
2022/01/24 00:15:58;;;;;;;0.80;0.80;;;;;;;7.29;74.06;102949.28;679746;28;138581;-67
2022/01/24 00:16:26;;;;;;;0.80;0.80;;;;;;;7.29;74.10;102949.28;683989;28;137204;-67
2022/01/24 00:17:01;;;;;;;0.95;0.95;;;;;;;7.28;74.17;102951.13;683240;28;136144;-67
2022/01/24 00:17:33;;;;;;;1.00;1.00;;;;;;;7.27;73.97;102946.69;684309;28;137093;-67
2022/01/24 00:18:04;;;;;;;1.00;1.00;;;;;;;7.27;74.21;102949.38;684206;28;137681;-67
2022/01/24 00:18:30;;;;;;;0.90;0.90;;;;;;;7.25;74.36;102945.94;684442;28;138163;-67
2022/01/24 00:26:58;;;;;;;0.90;0.90;;;;;;;7.18;74.54;102950.00;680619;28;138406;-67
2022/01/24 00:27:19;;;;;;;1.10;1.10;;;;;;;7.18;74.69;102955.38;684603;28;46726;-67
2022/01/24 00:27:40;;;;;;;0.90;0.90;;;;;;;7.19;74.83;102957.09;685390;28;21540;-67
2022/01/24 00:28:02;;;;;;;0.90;0.90;;;;;;;7.18;74.84;102956.25;685711;28;23494;-67
2022/01/24 00:28:24;;;;;;;0.80;0.80;;;;;;;7.15;74.79;102947.53;685725;28;22376;-67
2022/01/24 00:28:45;;;;;;;0.60;0.60;;;;;;;7.17;74.90;102950.97;684029;28;67533;-67
2022/01/24 00:29:06;;;;;;;0.80;0.80;;;;;;;7.16;74.81;102952.81;683844;28;22429;-67
2022/01/24 00:29:28;;;;;;;0.90;0.90;;;;;;;7.16;74.92;102950.13;686749;28;22430;-67
2022/01/24 00:29:50;;;;;;;0.80;0.80;;;;;;;7.17;74.77;102950.97;683824;28;22436;-67
2022/01/24 00:30:11;;;;;;;0.80;0.80;;;;;;;7.17;74.74;102956.34;681924;28;68382;-67
2022/01/24 00:30:33;;;;;;;0.80;0.80;;;;;;;7.17;74.90;102949.13;683840;28;21571;-68
2022/01/24 00:30:54;;;;;;;0.80;0.80;;;;;;;7.15;74.94;102947.53;684369;28;22288;-67
2022/01/24 00:31:16;;;;;;;1.00;1.00;;;;;;;7.16;74.90;102952.81;685439;28;46349;-67
2022/01/24 00:31:37;;;;;;;1.00;1.00;;;;;;;7.17;74.94;102948.28;685639;28;44404;-67
2022/01/24 00:31:58;;;;;;;0.90;0.90;;;;;;;7.18;74.69;102952.69;684456;28;43050;-67
2022/01/24 00:32:19;;;;;;;0.90;0.90;;;;;;;7.17;74.82;102950.97;685415;28;21365;-67
2022/01/24 00:32:40;;;;;;;0.88;0.88;;;;;;;7.17;74.98;102953.66;685891;28;22605;-67
2022/01/24 00:33:03;;;;;;;0.70;0.70;;;;;;;7.18;74.88;102952.69;685880;28;23466;-67
2022/01/24 00:33:24;;;;;;;0.90;0.90;;;;;;;7.16;74.81;102951.91;683905;28;67527;-67
2022/01/24 00:33:45;;;;;;;0.80;0.80;;;;;;;7.16;74.78;102947.44;685902;28;22412;-67
2022/01/24 00:34:06;;;;;;;0.80;0.80;;;;;;;7.13;74.84;102944.94;685923;28;21542;-67
2022/01/24 00:34:28;;;;;;;0.80;0.80;;;;;;;7.13;74.88;102947.63;685798;28;22381;-67
2022/01/24 00:34:49;;;;;;;0.70;0.70;;;;;;;7.14;74.70;102949.34;684831;28;46350;-67
2022/01/24 00:35:11;;;;;;;0.68;0.68;;;;;;;7.17;74.94;102954.50;685939;28;23326;-67
2022/01/24 00:35:32;;;;;;;0.85;0.85;;;;;;;7.16;75.04;102946.53;685973;28;22413;-67
2022/01/24 00:35:54;;;;;;;0.80;0.80;;;;;;;7.17;74.80;102950.97;685231;28;45228;-67
2022/01/24 00:36:17;;;;;;;0.85;0.85;;;;;;;7.18;74.64;102950.00;684379;28;46340;-67
2022/01/24 00:36:38;;;;;;;0.80;0.80;;;;;;;7.15;74.68;102947.53;685011;28;45171;-67
2022/01/24 00:37:01;;;;;;;0.70;0.70;;;;;;;7.17;75.00;102953.66;686214;28;43258;-67
2022/01/24 00:37:22;;;;;;;0.80;0.80;;;;;;;7.17;74.76;102957.19;685796;28;92392;-67
2022/01/24 00:37:43;;;;;;;0.90;0.90;;;;;;;7.16;74.82;102950.13;687431;28;45271;-67
2022/01/24 00:38:05;;;;;;;0.80;0.80;;;;;;;7.12;74.87;102943.19;688293;28;21536;-67
2022/01/24 00:38:27;;;;;;;0.80;0.80;;;;;;;7.16;74.97;102957.28;688062;28;22422;-67
2022/01/24 00:38:48;;;;;;;0.70;0.70;;;;;;;7.15;74.93;102955.59;687311;28;46144;-67
2022/01/24 00:39:09;;;;;;;0.90;0.90;;;;;;;7.13;74.89;102953.00;687821;28;22397;-67
2022/01/24 00:39:31;;;;;;;0.98;0.98;;;;;;;7.13;75.10;102955.69;688395;28;21548;-67
2022/01/24 00:39:53;;;;;;;0.90;0.90;;;;;;;7.14;74.82;102957.41;687329;28;44446;-67
2022/01/24 00:40:15;;;;;;;0.80;0.80;;;;;;;7.14;75.06;102954.72;687490;28;46312;-67
2022/01/24 00:40:39;;;;;;;0.70;0.70;;;;;;;7.13;74.70;102955.69;687862;28;47463;-67
2022/01/24 00:41:00;;;;;;;0.50;0.50;;;;;;;7.15;74.97;102955.59;686328;28;90366;-67
2022/01/24 00:41:22;;;;;;;0.73;0.73;;;;;;;7.14;75.17;102956.53;687989;28;23479;-67
2022/01/24 00:41:50;;;;;;;0.82;0.82;;;;;;;7.13;75.08;102955.69;686139;28;69198;-67
2022/01/24 00:42:23;;;;;;;0.90;0.90;;;;;;;7.15;74.82;102951.06;684217;28;139029;-67
2022/01/24 00:42:52;;;;;;;0.70;0.70;;;;;;;7.15;75.02;102956.44;684657;28;139157;-67
2022/01/24 00:43:22;;;;;;;0.80;0.80;;;;;;;7.14;75.17;102949.34;684255;28;137240;-67
2022/01/24 00:43:58;;;;;;;0.90;0.90;;;;;;;7.13;75.22;102946.75;684696;28;138899;-67
2022/01/24 00:44:43;;;;;;;0.80;0.80;;;;;;;7.14;74.94;102952.00;684302;28;137265;-67
2022/01/24 00:45:11;;;;;;;0.70;0.70;;;;;;;7.14;75.26;102953.84;683871;28;161847;-67
2022/01/24 00:45:37;;;;;;;0.90;0.90;;;;;;;7.12;74.99;102956.63;684674;28;136334;-67
2022/01/24 00:46:03;;;;;;;0.95;0.95;;;;;;;7.14;74.98;102952.00;684734;28;138081;-67
2022/01/24 00:46:33;;;;;;;0.80;0.80;;;;;;;7.14;74.94;102956.53;683973;28;137862;-67
2022/01/24 00:46:58;;;;;;;0.70;0.70;;;;;;;7.14;75.05;102951.16;683645;28;137896;-68
2022/01/24 00:47:25;;;;;;;0.90;0.90;;;;;;;7.14;75.12;102952.00;686881;28;115990;-67
2022/01/24 00:48:04;;;;;;;0.90;0.90;;;;;;;7.15;75.21;102952.91;686677;28;136717;-68
2022/01/24 00:48:36;;;;;;;0.70;0.70;;;;;;;7.14;74.95;102951.16;686851;28;137409;-67
2022/01/24 00:49:18;;;;;;;0.70;0.70;;;;;;;7.10;74.96;102942.44;685966;28;160487;-67
2022/01/24 00:52:59;;;;;;;0.82;0.82;;;;;;;7.12;75.21;102950.41;684652;28;137693;-67
2022/01/24 00:53:19;;;;;;;0.70;0.70;;;;;;;7.08;75.25;102947.03;683818;28;138615;-67
2022/01/24 00:54:00;;;;;;;0.80;0.80;;;;;;;7.08;75.60;102944.34;684573;28;137768;-67
2022/01/24 00:55:04;;;;;;;0.70;0.70;;;;;;;7.03;75.54;102936.59;684206;28;135828;-67
2022/01/24 00:55:25;;;;;;;0.73;0.73;;;;;;;7.06;75.54;102946.28;684919;28;115907;-67
2022/01/24 00:55:48;;;;;;;0.80;0.80;;;;;;;7.07;75.50;102947.16;688214;28;23484;-68
2022/01/24 00:56:10;;;;;;;0.70;0.70;;;;;;;7.07;75.47;102949.81;686483;28;67488;-67
2022/01/24 00:56:31;;;;;;;0.70;0.70;;;;;;;7.05;75.53;102947.25;687451;28;46234;-67
2022/01/24 00:56:53;;;;;;;0.70;0.70;;;;;;;7.06;75.47;102946.28;687284;28;21542;-68
2022/01/24 00:57:14;;;;;;;0.68;0.68;;;;;;;7.06;75.66;102954.34;687566;28;46304;-67
2022/01/24 00:57:35;;;;;;;0.88;0.88;;;;;;;7.06;75.46;102950.81;688699;28;22425;-67
2022/01/24 00:57:56;;;;;;;0.80;0.80;;;;;;;7.06;75.49;102943.59;688647;28;22365;-67
2022/01/24 00:58:18;;;;;;;0.82;0.82;;;;;;;7.04;75.39;102941.00;687993;28;22410;-67
2022/01/24 00:58:40;;;;;;;0.80;0.80;;;;;;;7.06;75.64;102943.59;687972;28;46351;-67
2022/01/24 00:59:01;;;;;;;0.70;0.70;;;;;;;7.06;75.53;102951.66;687023;28;46445;-68
2022/01/24 00:59:22;;;;;;;0.70;0.70;;;;;;;7.03;75.41;102949.19;688206;28;19144;-67
2022/01/24 00:59:44;;;;;;;0.90;0.90;;;;;;;7.06;75.82;102942.75;687827;28;23495;-67
2022/01/24 01:00:06;;;;;;;0.82;0.82;;;;;;;7.06;75.53;102945.44;687581;28;45330;-68
2022/01/24 01:00:27;;;;;;;0.88;0.88;;;;;;;7.06;75.50;102942.75;685155;28;47221;-67
2022/01/24 01:00:48;;;;;;;0.80;0.80;;;;;;;7.03;75.63;102941.97;685925;28;22408;-67
2022/01/24 01:01:10;;;;;;;0.80;0.80;;;;;;;7.05;75.64;102944.56;687865;28;23493;-67
2022/01/24 01:01:31;;;;;;;0.90;0.90;;;;;;;7.03;75.52;102943.81;687141;28;45556;-67
2022/01/24 01:01:52;;;;;;;0.90;0.90;;;;;;;7.06;75.79;102948.13;687769;28;15605;-67
2022/01/24 01:02:15;;;;;;;0.80;0.80;;;;;;;7.04;75.69;102945.53;688212;28;22425;-68
2022/01/24 01:02:36;;;;;;;0.88;0.88;;;;;;;7.07;75.87;102949.81;686634;28;69398;-67
2022/01/24 01:02:57;;;;;;;0.70;0.70;;;;;;;7.07;75.57;102949.81;688828;28;23413;-67
2022/01/24 01:03:19;;;;;;;0.75;0.75;;;;;;;7.06;75.76;102940.91;687901;28;23486;-68
2022/01/24 01:03:41;;;;;;;0.85;0.85;;;;;;;7.06;75.87;102942.75;687857;28;45141;-67
2022/01/24 01:04:02;;;;;;;0.80;0.80;;;;;;;7.08;75.65;102944.34;687872;28;46426;-68
2022/01/24 01:04:35;;;;;;;0.70;0.70;;;;;;;7.08;75.60;102943.50;687773;28;38003;-68
2022/01/24 01:05:07;;;;;;;0.70;0.70;;;;;;;7.09;75.52;102951.47;683720;28;160799;-67
2022/01/24 01:05:42;;;;;;;0.77;0.77;;;;;;;7.04;75.53;102941.00;684219;28;137576;-68
2022/01/24 01:06:05;;;;;;;0.80;0.80;;;;;;;7.06;75.35;102940.91;684750;28;135917;-68
2022/01/24 01:06:27;;;;;;;0.70;0.70;;;;;;;7.08;75.35;102943.50;686503;28;70302;-67
2022/01/24 01:06:50;;;;;;;0.70;0.70;;;;;;;7.04;75.33;102934.78;687127;28;22309;-68
2022/01/24 01:07:11;;;;;;;0.60;0.60;;;;;;;7.06;75.41;102950.81;683656;28;69403;-67
2022/01/24 01:07:38;;;;;;;0.70;0.70;;;;;;;7.05;75.57;102947.25;685790;28;23441;-67
2022/01/24 01:08:13;;;;;;;0.80;0.80;;;;;;;7.05;75.75;102947.25;681677;28;136398;-68
2022/01/24 01:18:15;;;;;;;0.80;0.80;;;;;;;7.00;75.74;102944.84;681299;28;160402;-66
2022/01/24 01:18:36;;;;;;;0.70;0.70;;;;;;;7.02;75.86;102948.31;683323;28;138758;-66
2022/01/24 01:18:57;;;;;;;0.60;0.60;;;;;;;7.02;75.93;102944.75;686072;28;46576;-66
2022/01/24 01:19:19;;;;;;;0.60;0.60;;;;;;;7.02;76.11;102948.31;685608;28;22397;-66
2022/01/24 01:19:40;;;;;;;0.68;0.68;;;;;;;7.00;75.78;102941.31;685605;28;46324;-66
2022/01/24 01:20:02;;;;;;;0.80;0.80;;;;;;;7.02;75.72;102944.75;685727;28;22421;-66
2022/01/24 01:20:25;;;;;;;0.80;0.80;;;;;;;7.02;75.76;102951.00;685190;28;44347;-66
2022/01/24 01:21:07;;;;;;;0.70;0.70;;;;;;;7.01;76.10;102946.59;684559;28;69242;-66
2022/01/24 01:21:28;;;;;;;0.60;0.60;;;;;;;6.97;76.16;102946.88;682328;28;137446;-66
2022/01/24 01:21:50;;;;;;;0.90;0.90;;;;;;;6.99;75.93;102942.25;685661;28;21555;-66
2022/01/24 01:22:12;;;;;;;0.80;0.80;;;;;;;6.98;76.17;102951.31;686211;28;22402;-66
2022/01/24 01:22:33;;;;;;;0.80;0.80;;;;;;;6.98;76.05;102941.41;685872;28;44376;-67
2022/01/24 01:22:54;;;;;;;0.65;0.65;;;;;;;6.99;75.85;102947.63;686467;28;22409;-66
2022/01/24 01:23:15;;;;;;;0.60;0.60;;;;;;;6.98;75.95;102940.56;686408;28;21292;-66
2022/01/24 01:23:41;;;;;;;0.65;0.65;;;;;;;6.98;76.07;102941.41;685494;28;46349;-66
2022/01/24 01:24:03;;;;;;;0.80;0.80;;;;;;;7.00;75.99;102947.53;683004;28;115233;-66
2022/01/24 01:24:26;;;;;;;0.90;0.90;;;;;;;6.97;76.02;102941.50;684272;28;69264;-66
2022/01/24 01:24:52;;;;;;;0.80;0.80;;;;;;;6.96;76.03;102939.78;685398;28;46923;-66
2022/01/24 01:25:14;;;;;;;0.80;0.80;;;;;;;6.98;75.81;102946.78;681826;28;136485;-66
2022/01/24 01:25:39;;;;;;;0.70;0.70;;;;;;;7.00;75.84;102946.69;684281;28;69448;-67
2022/01/24 01:26:03;;;;;;;0.95;0.95;;;;;;;6.97;75.95;102938.81;684188;28;90807;-66
2022/01/24 01:26:31;;;;;;;0.90;0.90;;;;;;;6.99;75.97;102937.78;682841;28;115087;-66
2022/01/24 01:26:58;;;;;;;0.88;0.88;;;;;;;7.00;75.77;102946.69;683344;28;138006;-66
2022/01/24 01:27:25;;;;;;;0.80;0.80;;;;;;;6.96;75.85;102935.28;684795;28;137898;-66
2022/01/24 01:27:48;;;;;;;0.70;0.70;;;;;;;7.01;75.94;102943.03;684914;28;137593;-66
2022/01/24 01:28:09;;;;;;;0.90;0.90;;;;;;;6.99;75.99;102947.63;687426;28;67356;-66
2022/01/24 01:28:32;;;;;;;0.90;0.90;;;;;;;6.98;75.76;102936.03;688737;28;20884;-67
2022/01/24 01:29:08;;;;;;;0.95;0.95;;;;;;;6.96;75.82;102935.28;685903;28;98593;-66
2022/01/24 01:29:34;;;;;;;0.68;0.68;;;;;;;6.98;75.78;102940.56;685067;28;137991;-66
2022/01/24 01:30:00;;;;;;;0.80;0.80;;;;;;;7.00;76.09;102938.63;685036;28;137984;-66
2022/01/24 01:30:25;;;;;;;0.82;0.82;;;;;;;6.97;76.01;102934.31;684628;28;138020;-66
2022/01/24 01:30:50;;;;;;;0.80;0.80;;;;;;;6.99;76.06;102937.78;685711;28;115054;-66
2022/01/24 01:31:22;;;;;;;0.70;0.70;;;;;;;7.00;76.04;102936.78;684686;28;137826;-66
2022/01/24 01:31:50;;;;;;;0.80;0.80;;;;;;;7.01;76.13;102935.00;684254;28;138563;-66
2022/01/24 01:32:18;;;;;;;0.80;0.80;;;;;;;7.01;76.19;102943.03;684820;28;137711;-66
2022/01/24 01:32:52;;;;;;;0.80;0.80;;;;;;;7.02;76.13;102942.94;684940;28;136236;-66
2022/01/24 01:33:20;;;;;;;0.70;0.70;;;;;;;7.04;76.04;102937.47;684968;28;137545;-66
2022/01/24 01:33:53;;;;;;;0.65;0.65;;;;;;;7.05;75.93;102939.19;683998;28;160228;-66
2022/01/24 01:34:33;;;;;;;0.90;0.90;;;;;;;7.05;75.82;102941.88;684107;28;160683;-66
2022/01/24 01:35:13;;;;;;;0.77;0.77;;;;;;;7.04;75.80;102940.16;684658;28;137617;-66
2022/01/24 01:35:53;;;;;;;0.70;0.70;;;;;;;7.05;75.95;102933.81;683995;28;160402;-66
2022/01/24 01:36:21;;;;;;;0.80;0.80;;;;;;;7.02;75.80;102929.50;683684;28;160572;-66
2022/01/24 01:37:23;;;;;;;0.70;0.70;;;;;;;7.04;75.63;102941.00;684124;28;136391;-66
2022/01/24 01:38:03;;;;;;;0.70;0.70;;;;;;;7.03;75.72;102933.06;684725;28;137580;-66
2022/01/24 01:38:46;;;;;;;0.88;0.88;;;;;;;7.02;76.05;102936.69;684643;28;138394;-66
2022/01/24 01:52:29;;;;;;;0.70;0.70;;;;;;;6.95;76.25;102948.81;686831;28;157353;-67
2022/01/24 01:53:00;;;;;;;0.70;0.70;;;;;;;6.93;75.92;102940.84;688758;28;135989;-67
2022/01/24 01:53:46;;;;;;;0.80;0.80;;;;;;;6.93;75.92;102943.53;688917;28;138574;-67
2022/01/24 01:54:20;;;;;;;0.50;0.50;;;;;;;6.92;76.10;102940.94;689138;28;136413;-67
2022/01/24 01:54:57;;;;;;;0.70;0.70;;;;;;;6.92;75.99;102944.50;689353;28;137761;-67
2022/01/24 01:55:36;;;;;;;0.80;0.80;;;;;;;6.92;76.19;102938.28;687808;28;159141;-67
2022/01/24 01:55:58;;;;;;;0.60;0.60;;;;;;;6.92;76.15;102940.94;689375;28;137652;-67
2022/01/24 01:56:20;;;;;;;0.60;0.60;;;;;;;6.91;76.05;102941.91;692235;28;45267;-67
2022/01/24 01:56:44;;;;;;;0.70;0.70;;;;;;;6.90;76.24;102933.00;692283;28;21544;-67
2022/01/24 01:57:20;;;;;;;0.90;0.90;;;;;;;6.89;76.42;102938.47;692819;28;14966;-67
2022/01/24 01:57:42;;;;;;;1.10;1.10;;;;;;;6.90;76.38;102941.06;686505;28;137712;-68
2022/01/24 01:58:03;;;;;;;0.60;0.60;;;;;;;6.89;76.13;102935.78;690570;28;22349;-67
2022/01/24 01:58:25;;;;;;;0.60;0.60;;;;;;;6.91;76.12;102945.47;689585;28;47494;-67
2022/01/24 01:58:47;;;;;;;0.80;0.80;;;;;;;6.92;76.47;102941.81;687732;28;45028;-68
2022/01/24 01:59:09;;;;;;;0.85;0.85;;;;;;;6.92;76.31;102944.50;687783;28;46367;-67
2022/01/24 01:59:30;;;;;;;0.77;0.77;;;;;;;6.92;76.20;102940.94;689742;28;22377;-68
2022/01/24 01:59:51;;;;;;;0.73;0.73;;;;;;;6.92;76.36;102940.94;690508;28;22428;-68
2022/01/24 02:00:14;;;;;;;0.60;0.60;;;;;;;6.91;76.25;102940.09;690739;28;21352;-68
2022/01/24 02:00:38;;;;;;;0.70;0.70;;;;;;;6.92;76.40;102935.59;687436;28;92304;-67
2022/01/24 02:01:03;;;;;;;0.90;0.90;;;;;;;6.91;76.44;102939.22;686847;28;115555;-67
2022/01/24 02:01:24;;;;;;;0.73;0.73;;;;;;;6.91;76.40;102941.91;687992;28;92464;-67
2022/01/24 02:01:46;;;;;;;0.70;0.70;;;;;;;6.91;76.34;102941.91;691038;28;21549;-67
2022/01/24 02:02:07;;;;;;;0.80;0.80;;;;;;;6.91;76.44;102949.97;691768;28;45202;-67
2022/01/24 02:02:28;;;;;;;0.70;0.70;;;;;;;6.89;76.14;102941.16;693162;28;21264;-67
2022/01/24 02:02:49;;;;;;;0.82;0.82;;;;;;;6.89;76.25;102946.53;693344;28;22439;-67
2022/01/24 02:03:11;;;;;;;0.80;0.80;;;;;;;6.89;76.52;102949.22;692924;28;21939;-67
2022/01/24 02:03:33;;;;;;;0.80;0.80;;;;;;;6.89;76.26;102949.22;692447;28;46483;-67
2022/01/24 02:03:55;;;;;;;0.73;0.73;;;;;;;6.90;76.28;102940.19;693149;28;23571;-67
2022/01/24 02:04:16;;;;;;;0.70;0.70;;;;;;;6.90;76.41;102946.44;692773;28;44218;-67
2022/01/24 02:04:38;;;;;;;0.70;0.70;;;;;;;6.91;76.34;102945.47;693352;28;22235;-67
2022/01/24 02:04:59;;;;;;;0.80;0.80;;;;;;;6.93;76.30;102948.03;692340;28;44439;-68
2022/01/24 02:05:21;;;;;;;0.90;0.90;;;;;;;6.93;76.53;102942.66;692672;28;22397;-67
2022/01/24 02:05:42;;;;;;;0.80;0.80;;;;;;;6.95;76.23;102946.13;691884;28;46300;-67
2022/01/24 02:06:03;;;;;;;0.80;0.80;;;;;;;6.96;76.36;102942.47;693166;28;22335;-67
2022/01/24 02:06:25;;;;;;;0.80;0.80;;;;;;;6.97;76.18;102941.50;693170;28;22537;-67
2022/01/24 02:06:46;;;;;;;0.60;0.60;;;;;;;6.99;76.39;102950.31;691902;28;47714;-67
2022/01/24 02:07:10;;;;;;;0.80;0.80;;;;;;;6.99;76.38;102935.09;692697;28;23551;-68
2022/01/24 02:07:31;;;;;;;0.90;0.90;;;;;;;6.97;76.43;102938.81;690568;28;92315;-67
2022/01/24 02:07:53;;;;;;;0.82;0.82;;;;;;;7.00;76.37;102944.00;693123;28;21513;-67
2022/01/24 02:08:15;;;;;;;0.80;0.80;;;;;;;7.03;76.50;102941.13;691447;28;69121;-67
2022/01/24 02:08:37;;;;;;;0.70;0.70;;;;;;;7.04;76.11;102942.84;692017;28;46321;-67
2022/01/24 02:08:59;;;;;;;0.70;0.70;;;;;;;7.04;76.25;102943.69;693369;28;22401;-68
2022/01/24 02:09:21;;;;;;;1.02;1.02;;;;;;;7.03;76.32;102941.97;692168;28;45215;-67
2022/01/24 02:09:44;;;;;;;0.80;0.80;;;;;;;7.02;76.25;102939.38;692504;28;45244;-67
2022/01/24 02:10:06;;;;;;;0.80;0.80;;;;;;;7.04;76.12;102934.78;690717;28;93232;-67
2022/01/24 02:10:27;;;;;;;0.80;0.80;;;;;;;7.03;76.32;102941.97;692777;28;22412;-68
2022/01/24 02:10:49;;;;;;;0.70;0.70;;;;;;;7.02;76.22;102934.00;693144;28;22452;-67
2022/01/24 02:11:15;;;;;;;0.80;0.80;;;;;;;7.01;75.93;102935.84;692433;28;47237;-67
2022/01/24 02:11:36;;;;;;;1.00;1.00;;;;;;;7.03;76.05;102941.13;688377;28;161005;-67
2022/01/24 02:11:58;;;;;;;0.85;0.85;;;;;;;6.99;76.05;102934.19;691339;28;47359;-67
2022/01/24 02:12:24;;;;;;;0.75;0.75;;;;;;;7.01;76.05;102933.16;693189;28;20920;-67
2022/01/24 02:12:46;;;;;;;0.70;0.70;;;;;;;7.02;76.21;102942.94;690652;28;136934;-67
2022/01/24 02:13:08;;;;;;;0.90;0.90;;;;;;;6.99;76.15;102937.78;694525;28;1213;-67
2022/01/24 02:13:31;;;;;;;0.90;0.90;;;;;;;7.00;76.08;102933.25;692819;28;22413;-67
2022/01/24 02:14:05;;;;;;;0.80;0.80;;;;;;;7.03;76.07;102936.59;689681;28;121249;-67
2022/01/24 02:14:33;;;;;;;0.90;0.90;;;;;;;6.98;76.03;102925.28;690082;28;92388;-67
2022/01/24 02:14:59;;;;;;;0.80;0.80;;;;;;;7.02;76.04;102937.56;689385;28;137612;-68
2022/01/24 02:15:26;;;;;;;0.88;0.88;;;;;;;7.03;76.11;102935.75;688530;28;138290;-68
2022/01/24 02:15:57;;;;;;;1.00;1.00;;;;;;;7.02;76.17;102934.88;688874;28;138058;-67
2022/01/24 02:16:27;;;;;;;0.75;0.75;;;;;;;7.02;76.11;102925.94;688986;28;137779;-67
2022/01/24 02:16:54;;;;;;;0.90;0.90;;;;;;;7.02;76.27;102931.31;688261;28;137814;-67
2022/01/24 02:17:20;;;;;;;0.80;0.80;;;;;;;7.00;76.27;102930.56;689196;28;138400;-67
2022/01/24 02:17:53;;;;;;;1.00;1.00;;;;;;;7.04;76.09;102929.41;689006;28;138107;-68
2022/01/24 02:18:27;;;;;;;0.90;0.90;;;;;;;7.04;76.18;102937.47;688426;28;161525;-67
2022/01/24 02:18:54;;;;;;;2.70;2.50;;;;;;;7.06;76.03;102932.84;681932;28;137263;-67
2022/01/24 02:19:26;;;;;;;0.80;0.80;;;;;;;7.07;76.29;102933.72;686176;28;138539;-67
2022/01/24 02:20:05;;;;;;;0.80;0.80;;;;;;;7.07;76.14;102929.22;686651;28;136079;-66
2022/01/24 02:20:41;;;;;;;0.80;0.80;;;;;;;7.10;76.00;102931.69;686466;28;136358;-67
2022/01/24 02:21:11;;;;;;;0.65;0.65;;;;;;;7.11;75.85;102936.09;688858;28;136744;-67
2022/01/24 02:21:43;;;;;;;0.90;0.90;;;;;;;7.10;76.06;102931.69;688848;28;137863;-67
2022/01/24 02:22:27;;;;;;;0.93;0.93;;;;;;;7.13;75.93;102927.94;686790;28;157459;-67
2022/01/24 02:23:01;;;;;;;0.73;0.73;;;;;;;7.12;76.03;102921.69;689006;28;135917;-67
2022/01/24 02:23:40;;;;;;;0.80;0.80;;;;;;;7.13;76.00;102925.25;689364;28;136125;-67
2022/01/24 02:24:01;;;;;;;0.80;0.80;;;;;;;7.14;75.97;102927.84;691046;28;85703;-67
2022/01/24 02:24:22;;;;;;;0.80;0.80;;;;;;;7.14;75.84;102925.16;693396;28;22484;-67
2022/01/24 02:24:53;;;;;;;0.70;0.70;;;;;;;7.13;75.63;102926.13;693635;28;23416;-67
2022/01/24 02:25:27;;;;;;;0.77;0.77;;;;;;;7.14;75.70;102925.16;688710;28;137709;-67
2022/01/24 02:25:48;;;;;;;0.90;0.90;;;;;;;7.14;75.72;102926.97;688275;28;160509;-67
2022/01/24 02:26:13;;;;;;;1.00;1.00;;;;;;;7.13;75.64;102926.13;692199;28;44115;-68
2022/01/24 02:26:35;;;;;;;0.80;0.80;;;;;;;7.12;75.76;102931.59;690177;28;113609;-67
2022/01/24 02:26:58;;;;;;;0.80;0.80;;;;;;;7.11;75.57;102925.34;690627;28;46442;-67
2022/01/24 02:27:21;;;;;;;0.80;0.80;;;;;;;7.13;75.67;102926.13;691627;28;69551;-67
2022/01/24 02:27:47;;;;;;;0.85;0.85;;;;;;;7.13;75.64;102923.44;691473;28;69465;-67
2022/01/24 02:28:11;;;;;;;0.90;0.90;;;;;;;7.14;75.61;102927.84;689210;28;135956;-67
2022/01/24 02:28:44;;;;;;;0.70;0.70;;;;;;;7.13;75.67;102923.44;689770;28;114977;-67
2022/01/24 02:29:11;;;;;;;0.60;0.60;;;;;;;7.15;75.58;102923.34;688479;28;138711;-67
2022/01/24 02:29:47;;;;;;;0.73;0.73;;;;;;;7.15;75.52;102924.19;688945;28;136416;-67
2022/01/24 02:30:15;;;;;;;0.80;0.80;;;;;;;7.15;75.63;102926.03;689096;28;138418;-67
2022/01/24 02:30:49;;;;;;;0.70;0.70;;;;;;;7.14;76.02;102925.16;689086;28;136268;-67
2022/01/24 02:31:26;;;;;;;0.60;0.60;;;;;;;7.14;75.41;102925.16;689031;28;138441;-67
2022/01/24 02:31:49;;;;;;;0.80;0.80;;;;;;;7.12;75.61;102916.34;688510;28;135841;-67
2022/01/24 02:32:11;;;;;;;0.80;0.80;;;;;;;7.11;75.83;102928.03;690925;28;67524;-67
2022/01/24 02:32:36;;;;;;;0.80;0.80;;;;;;;7.12;75.53;102924.41;692128;28;44375;-67
2022/01/24 02:32:58;;;;;;;0.88;0.88;;;;;;;7.12;75.69;102928.91;689600;28;113923;-67
2022/01/24 02:33:20;;;;;;;0.73;0.73;;;;;;;7.11;75.79;102922.66;694015;28;46394;-67
2022/01/24 02:33:44;;;;;;;0.90;0.90;;;;;;;7.11;75.56;102922.66;693950;28;1558;-67
2022/01/24 02:34:20;;;;;;;0.93;0.93;;;;;;;7.12;75.54;102927.09;690458;28;93193;-67
2022/01/24 02:34:45;;;;;;;0.70;0.70;;;;;;;7.12;75.94;102929.78;688515;28;137767;-67
2022/01/24 02:35:07;;;;;;;0.70;0.70;;;;;;;7.11;75.87;102919.97;689802;28;115919;-67
2022/01/24 02:35:28;;;;;;;0.80;0.80;;;;;;;7.11;75.88;102928.03;691791;28;46373;-67
2022/01/24 02:35:50;;;;;;;0.90;0.90;;;;;;;7.12;75.95;102927.09;693130;28;21288;-67
2022/01/24 02:36:11;;;;;;;0.90;0.90;;;;;;;7.10;75.82;102923.66;693016;28;22381;-67
2022/01/24 02:36:34;;;;;;;0.90;0.90;;;;;;;7.10;75.93;102920.94;693260;28;21415;-67